Time;durP1;ratioP1;P1;durP2;ratioP2;P2;SDS_P1;SDS_P2;PMS_P1;PMS_P2;Temp;Humidity;BMP_temperature;BMP_pressure;BME280_temperature;BME280_humidity;BME280_pressure;Samples;Min_cycle;Max_cycle;Signal;HPM_P1;HPM_P2
2021/07/10 00:00:38;;;;;;;4.40;3.25;;;;;;;21.98;59.55;101611.25;5023559;28;20101;-65
2021/07/10 00:03:07;;;;;;;4.70;3.33;;;;;;;21.97;59.57;101609.59;5007842;28;20476;-65
2021/07/10 00:05:34;;;;;;;5.40;3.30;;;;;;;21.98;59.59;101605.09;5008750;28;20116;-64
2021/07/10 00:08:00;;;;;;;4.22;3.17;;;;;;;21.97;59.61;101609.59;4990487;28;20498;-65
2021/07/10 00:10:25;;;;;;;4.97;3.15;;;;;;;21.97;59.61;101604.25;4998427;28;20113;-65
2021/07/10 00:12:51;;;;;;;5.05;2.95;;;;;;;21.97;59.75;101604.25;5010645;28;20131;-65
2021/07/10 00:15:19;;;;;;;4.40;3.10;;;;;;;21.97;59.55;101600.75;4995704;28;20072;-65
2021/07/10 00:17:45;;;;;;;5.03;3.30;;;;;;;21.98;59.70;101611.25;5007747;28;20042;-66
2021/07/10 00:20:12;;;;;;;5.15;2.90;;;;;;;21.98;59.71;101605.91;5008613;28;20055;-65
2021/07/10 00:22:39;;;;;;;4.00;2.80;;;;;;;21.98;59.52;101602.41;5008939;28;20038;-65
2021/07/10 00:25:07;;;;;;;5.80;3.10;;;;;;;21.98;59.68;101605.91;5006980;28;20824;-65
2021/07/10 00:27:33;;;;;;;5.30;3.05;;;;;;;21.99;59.61;101604.06;5006450;28;20453;-65
2021/07/10 00:29:59;;;;;;;4.43;2.75;;;;;;;21.98;59.50;101603.25;5008511;28;20116;-65
2021/07/10 00:32:24;;;;;;;4.53;2.80;;;;;;;21.98;59.55;101605.91;5007176;28;20030;-65
2021/07/10 00:34:50;;;;;;;4.03;2.65;;;;;;;21.97;59.93;101604.25;5008579;28;20053;-65
2021/07/10 00:37:15;;;;;;;4.80;2.70;;;;;;;21.98;59.56;101605.09;5020407;28;20120;-65
2021/07/10 00:39:41;;;;;;;4.70;2.90;;;;;;;21.98;59.78;101602.41;5015864;28;20097;-65
2021/07/10 00:42:06;;;;;;;3.70;2.22;;;;;;;21.98;59.46;101608.59;5018002;28;20433;-65
2021/07/10 00:44:32;;;;;;;3.95;2.60;;;;;;;21.98;59.59;101599.75;5017527;28;20038;-65
2021/07/10 00:46:57;;;;;;;3.60;2.22;;;;;;;21.98;59.84;101599.75;5015655;28;20045;-65
2021/07/10 00:49:23;;;;;;;4.18;2.50;;;;;;;21.97;59.86;101598.91;5016086;28;20030;-65
2021/07/10 00:51:48;;;;;;;3.45;2.38;;;;;;;21.97;59.88;101600.75;5019636;28;20088;-65
2021/07/10 00:54:13;;;;;;;3.13;2.30;;;;;;;21.98;59.71;101599.75;5023349;28;20038;-64
2021/07/10 00:56:41;;;;;;;3.67;2.38;;;;;;;21.98;59.45;101600.56;5018839;28;20107;-64
2021/07/10 00:59:07;;;;;;;3.88;2.35;;;;;;;21.97;59.78;101593.56;5021152;28;20108;-65
2021/07/10 01:01:33;;;;;;;3.40;2.17;;;;;;;21.97;59.40;101596.25;5023586;28;20030;-65
2021/07/10 01:03:59;;;;;;;3.58;2.20;;;;;;;21.97;59.86;101596.25;5031597;28;20092;-65
2021/07/10 01:06:24;;;;;;;2.88;2.20;;;;;;;21.97;59.77;101595.44;5007337;28;20481;-65
2021/07/10 01:08:50;;;;;;;2.92;2.13;;;;;;;21.97;59.75;101588.22;5007183;28;20061;-65
2021/07/10 01:11:16;;;;;;;3.60;2.20;;;;;;;21.97;59.65;101598.91;5026748;28;20104;-65
2021/07/10 01:13:42;;;;;;;3.20;2.08;;;;;;;21.97;59.53;101596.25;5011010;28;20494;-65
2021/07/10 01:16:08;;;;;;;3.53;2.25;;;;;;;21.97;59.26;101592.75;5004450;28;20827;-65
2021/07/10 01:18:33;;;;;;;4.38;2.28;;;;;;;21.97;59.50;101593.56;4997001;28;20033;-64
2021/07/10 01:21:00;;;;;;;4.60;2.08;;;;;;;21.97;59.38;101593.56;5011234;28;20038;-65
2021/07/10 01:23:25;;;;;;;3.55;2.25;;;;;;;21.97;59.34;101598.91;5011077;28;20042;-65
2021/07/10 01:25:52;;;;;;;3.55;2.05;;;;;;;21.97;59.68;101598.09;5010821;28;20144;-65
2021/07/10 01:28:19;;;;;;;3.00;1.90;;;;;;;21.97;59.27;101596.25;5008725;28;20049;-65
2021/07/10 01:30:47;;;;;;;2.70;1.85;;;;;;;21.96;59.56;101594.59;5002651;28;20038;-65
2021/07/10 01:33:13;;;;;;;3.53;2.30;;;;;;;21.97;59.46;101596.25;5011340;28;20044;-62
2021/07/10 01:35:39;;;;;;;2.30;1.67;;;;;;;21.97;59.38;101598.91;5027347;28;20022;-62
2021/07/10 01:38:07;;;;;;;3.58;1.70;;;;;;;21.97;59.27;101585.56;5024033;28;20033;-62
2021/07/10 01:40:33;;;;;;;4.43;1.98;;;;;;;21.97;59.56;101582.88;5025658;28;20053;-62
2021/07/10 01:43:03;;;;;;;2.83;1.73;;;;;;;21.97;59.48;101577.53;5025603;28;20120;-62
2021/07/10 01:45:33;;;;;;;4.10;2.20;;;;;;;21.97;59.31;101579.41;5024380;28;20033;-62
2021/07/10 01:47:59;;;;;;;3.22;1.70;;;;;;;21.96;59.32;101570.56;5025524;28;20033;-62
2021/07/10 01:50:25;;;;;;;2.92;1.90;;;;;;;21.97;59.27;101576.72;5022323;28;20030;-62
2021/07/10 01:52:51;;;;;;;4.57;1.75;;;;;;;21.97;59.40;101572.22;5033847;28;20386;-63
2021/07/10 01:55:17;;;;;;;2.80;1.85;;;;;;;21.97;59.40;101568.72;5020411;28;20038;-62
2021/07/10 01:57:45;;;;;;;5.55;1.90;;;;;;;21.98;59.68;101559.66;5013735;28;20516;-62
2021/07/10 02:00:14;;;;;;;3.72;1.65;;;;;;;21.96;59.53;101559.88;5019925;28;20334;-62
2021/07/10 02:02:40;;;;;;;2.75;1.70;;;;;;;21.96;59.45;101559.88;5010583;28;20096;-62
2021/07/10 02:05:07;;;;;;;3.92;1.88;;;;;;;21.97;59.36;101560.69;4992004;28;20061;-62
2021/07/10 02:07:33;;;;;;;3.20;1.77;;;;;;;21.96;59.49;101557.19;5002748;28;20647;-62
2021/07/10 02:09:58;;;;;;;2.70;1.77;;;;;;;21.96;59.50;101559.88;5010209;28;20477;-62
2021/07/10 02:12:24;;;;;;;3.30;1.90;;;;;;;21.97;59.30;101550.84;4996145;28;20038;-62
2021/07/10 02:14:49;;;;;;;1.85;1.33;;;;;;;21.96;59.47;101543.84;4992865;28;20473;-62
2021/07/10 02:17:15;;;;;;;2.63;1.73;;;;;;;21.96;59.40;101557.19;5000736;28;20478;-62
2021/07/10 02:19:40;;;;;;;2.45;1.63;;;;;;;21.96;59.10;101548.34;5004184;28;20038;-62
2021/07/10 02:22:07;;;;;;;2.30;1.45;;;;;;;21.96;59.15;101551.03;5001560;28;20449;-62
2021/07/10 02:24:32;;;;;;;4.57;1.92;;;;;;;21.95;59.35;101542.19;5009991;28;20029;-62
2021/07/10 02:26:58;;;;;;;3.80;1.80;;;;;;;21.96;58.96;101545.69;5009708;28;20058;-62
2021/07/10 02:29:23;;;;;;;2.22;1.58;;;;;;;21.95;59.42;101536.84;5010085;28;20066;-62
2021/07/10 02:31:50;;;;;;;2.10;1.33;;;;;;;21.96;59.34;101546.50;5009494;28;20517;-62
2021/07/10 02:34:15;;;;;;;3.30;1.70;;;;;;;21.96;59.48;101538.50;5018245;28;20056;-62
2021/07/10 02:36:41;;;;;;;3.83;1.63;;;;;;;21.97;59.03;101536.66;5004032;28;20029;-62
2021/07/10 02:39:06;;;;;;;2.92;1.70;;;;;;;21.96;59.35;101537.66;5009243;28;20034;-62
2021/07/10 02:41:32;;;;;;;2.60;1.50;;;;;;;21.95;59.01;101536.84;5009665;28;20030;-62
2021/07/10 02:43:57;;;;;;;2.10;1.40;;;;;;;21.95;59.04;101530.69;5009809;28;20474;-63
2021/07/10 02:46:23;;;;;;;2.05;1.30;;;;;;;21.95;59.08;101528.00;5008173;28;20034;-62
2021/07/10 02:48:48;;;;;;;2.75;1.50;;;;;;;21.95;59.01;101526.16;5000167;28;20030;-62
2021/07/10 02:51:15;;;;;;;2.35;1.52;;;;;;;21.96;59.40;101527.81;5009291;28;20046;-62
2021/07/10 02:53:41;;;;;;;2.75;1.45;;;;;;;21.96;59.08;101522.47;5009737;28;20043;-62
2021/07/10 02:56:06;;;;;;;2.40;1.50;;;;;;;21.94;59.03;101524.50;5009426;28;20080;-63
2021/07/10 02:58:32;;;;;;;3.13;1.70;;;;;;;21.95;59.18;101526.16;4995838;28;20128;-63
2021/07/10 03:00:58;;;;;;;2.88;1.60;;;;;;;21.95;58.86;101518.16;5009152;28;20454;-63
2021/07/10 03:03:24;;;;;;;2.22;1.50;;;;;;;21.95;59.26;101514.66;5008742;28;20084;-62
2021/07/10 03:05:49;;;;;;;2.10;1.40;;;;;;;21.94;59.16;101513.84;5009543;28;20040;-62
2021/07/10 03:08:15;;;;;;;2.97;1.45;;;;;;;21.94;59.26;101516.50;4996812;28;20045;-62
2021/07/10 03:10:42;;;;;;;1.73;1.30;;;;;;;21.94;59.09;101521.84;5019510;28;20427;-62
2021/07/10 03:13:08;;;;;;;1.88;1.13;;;;;;;21.95;59.48;101518.16;5002616;28;20381;-62
2021/07/10 03:15:33;;;;;;;2.55;1.20;;;;;;;21.95;59.58;101511.97;5009112;28;20042;-62
2021/07/10 03:17:59;;;;;;;2.33;1.48;;;;;;;21.95;59.11;101512.81;5008677;28;20040;-63
2021/07/10 03:20:25;;;;;;;2.53;1.30;;;;;;;21.95;59.36;101496.78;5009523;28;20034;-63
2021/07/10 03:22:50;;;;;;;1.95;1.13;;;;;;;21.95;59.44;101510.13;5009340;28;20042;-62
2021/07/10 03:25:16;;;;;;;2.00;1.48;;;;;;;21.95;59.28;101501.28;5008268;28;20474;-62
2021/07/10 03:27:43;;;;;;;3.28;1.50;;;;;;;21.95;59.46;101510.13;5009057;28;20096;-62
2021/07/10 03:30:10;;;;;;;2.05;1.40;;;;;;;21.95;59.28;101504.78;5009371;28;20041;-62
2021/07/10 03:32:38;;;;;;;2.40;1.38;;;;;;;21.95;59.35;101509.31;5010345;28;20057;-62
2021/07/10 03:35:05;;;;;;;2.40;1.50;;;;;;;21.96;59.40;101508.28;5002014;28;20033;-62
2021/07/10 03:37:30;;;;;;;2.35;1.45;;;;;;;21.95;59.53;101504.78;5023658;28;20055;-62
2021/07/10 03:39:56;;;;;;;4.25;1.35;;;;;;;21.95;59.20;101501.28;5028939;28;20053;-62
2021/07/10 03:42:21;;;;;;;2.53;1.40;;;;;;;21.95;59.49;101507.47;5014917;28;20038;-63
2021/07/10 03:44:47;;;;;;;2.67;1.40;;;;;;;21.95;59.29;101506.63;5009185;28;20034;-62
2021/07/10 03:47:12;;;;;;;2.28;1.40;;;;;;;21.95;59.33;101506.63;5023422;28;20065;-62
2021/07/10 03:49:38;;;;;;;2.22;1.35;;;;;;;21.94;59.26;101503.16;4994463;28;20560;-62
2021/07/10 03:52:03;;;;;;;2.42;1.20;;;;;;;21.95;59.36;101498.63;5008240;28;20427;-62
2021/07/10 03:54:29;;;;;;;2.40;1.20;;;;;;;21.96;59.35;101502.94;4994941;28;20458;-63
2021/07/10 03:56:54;;;;;;;2.83;1.40;;;;;;;21.95;59.50;101496.78;5009144;28;20104;-62
2021/07/10 03:59:20;;;;;;;2.92;1.30;;;;;;;21.96;59.09;101497.59;4991329;28;20041;-62
2021/07/10 04:01:45;;;;;;;1.50;1.10;;;;;;;21.95;59.33;101496.78;5008344;28;20115;-62
2021/07/10 04:04:14;;;;;;;1.42;1.20;;;;;;;21.95;59.40;101498.63;5008116;28;20038;-62
2021/07/10 04:06:40;;;;;;;2.42;1.60;;;;;;;21.95;59.48;101499.44;4995113;28;20041;-62
2021/07/10 04:09:06;;;;;;;1.88;1.20;;;;;;;21.95;59.43;101493.28;5008658;28;20139;-62
2021/07/10 04:11:32;;;;;;;2.45;1.30;;;;;;;21.95;59.08;101494.09;4997773;28;20034;-62
2021/07/10 04:13:58;;;;;;;2.70;1.50;;;;;;;21.95;59.43;101494.09;5005626;28;20062;-62
2021/07/10 04:16:23;;;;;;;1.70;1.10;;;;;;;21.96;59.48;101489.59;5008218;28;20381;-62
2021/07/10 04:18:48;;;;;;;1.95;1.10;;;;;;;21.94;58.99;101495.13;5007106;28;20163;-62
2021/07/10 04:21:14;;;;;;;1.77;1.20;;;;;;;21.94;59.55;101492.47;5000698;28;20050;-62
2021/07/10 04:23:40;;;;;;;2.78;1.20;;;;;;;21.95;59.27;101486.09;5008376;28;20088;-62
2021/07/10 04:26:06;;;;;;;2.28;1.00;;;;;;;21.95;59.41;101486.09;5007810;28;20393;-62
2021/07/10 04:28:31;;;;;;;2.30;1.40;;;;;;;21.94;58.99;101473.75;5008304;28;20037;-63
2021/07/10 04:30:56;;;;;;;2.15;1.27;;;;;;;21.95;59.16;101486.09;5004950;28;20077;-63
2021/07/10 04:33:22;;;;;;;2.55;1.55;;;;;;;21.94;59.16;101491.63;5005868;28;20049;-62
2021/07/10 04:35:47;;;;;;;1.80;1.20;;;;;;;21.94;59.04;101487.13;5027181;28;20033;-63
2021/07/10 04:38:13;;;;;;;1.55;1.13;;;;;;;21.94;59.04;101492.47;5027507;28;20032;-62
2021/07/10 04:40:38;;;;;;;1.92;1.10;;;;;;;21.94;59.19;101486.28;5012153;28;20038;-62
2021/07/10 04:43:04;;;;;;;1.48;1.10;;;;;;;21.93;59.13;101485.44;5012071;28;20030;-62
2021/07/10 04:45:29;;;;;;;1.88;1.10;;;;;;;21.95;59.12;101485.25;5011950;28;20397;-62
2021/07/10 04:47:55;;;;;;;2.30;1.25;;;;;;;21.94;58.94;101484.44;5010924;28;20114;-62
2021/07/10 04:50:22;;;;;;;1.45;1.05;;;;;;;21.93;59.05;101477.41;4994175;28;20165;-63
2021/07/10 04:52:47;;;;;;;2.28;1.33;;;;;;;21.93;59.17;101482.75;5011457;28;20196;-62
2021/07/10 04:55:16;;;;;;;2.28;1.25;;;;;;;21.93;58.88;101485.44;5012120;28;20498;-62
2021/07/10 04:57:43;;;;;;;2.35;1.30;;;;;;;21.93;58.65;101482.75;5011645;28;20042;-62
2021/07/10 05:00:09;;;;;;;2.45;1.27;;;;;;;21.93;58.84;101487.28;5009339;28;20106;-62
2021/07/10 05:02:35;;;;;;;1.67;1.15;;;;;;;21.93;58.62;101485.44;5009574;28;20156;-62
2021/07/10 05:05:00;;;;;;;1.65;1.40;;;;;;;21.93;58.86;101487.28;5011901;28;20042;-62
2021/07/10 05:07:26;;;;;;;2.05;1.30;;;;;;;21.92;58.82;101474.94;5009641;28;20072;-62
2021/07/10 05:09:51;;;;;;;2.35;1.25;;;;;;;21.93;58.71;101492.63;4993813;28;20049;-62
2021/07/10 05:12:20;;;;;;;1.27;1.08;;;;;;;21.91;58.51;101487.47;4997301;28;20030;-62
2021/07/10 05:14:46;;;;;;;3.08;1.10;;;;;;;21.91;58.60;101487.47;5011856;28;20725;-62
2021/07/10 05:17:12;;;;;;;2.63;1.27;;;;;;;21.92;58.37;101485.63;5010400;28;20045;-62
2021/07/10 05:19:37;;;;;;;1.77;1.20;;;;;;;21.91;58.74;101486.66;5003486;28;20471;-63
2021/07/10 05:22:03;;;;;;;1.98;1.17;;;;;;;21.91;58.66;101483.97;5004030;28;20041;-62
2021/07/10 05:24:29;;;;;;;2.45;1.45;;;;;;;21.90;58.77;101488.50;5010815;28;20437;-62
2021/07/10 05:26:54;;;;;;;1.75;1.30;;;;;;;21.90;58.70;101485.00;5011404;28;20361;-62
2021/07/10 05:29:19;;;;;;;2.75;1.30;;;;;;;21.91;58.51;101494.66;5006629;28;20061;-62
2021/07/10 05:31:45;;;;;;;1.90;1.40;;;;;;;21.90;58.62;101490.34;5000769;28;20045;-62
2021/07/10 05:34:11;;;;;;;1.80;1.30;;;;;;;21.91;58.58;101502.69;5023642;28;20532;-63
2021/07/10 05:36:36;;;;;;;1.85;1.10;;;;;;;21.91;58.23;101492.00;5001182;28;20053;-63
2021/07/10 05:39:03;;;;;;;1.85;1.27;;;;;;;21.91;58.27;101489.31;5023030;28;20042;-62
2021/07/10 05:41:28;;;;;;;2.10;1.35;;;;;;;21.91;58.20;101492.81;5015603;28;20084;-62
2021/07/10 05:43:54;;;;;;;2.08;1.30;;;;;;;21.90;58.60;101493.03;5030389;28;20041;-62
2021/07/10 05:46:19;;;;;;;1.80;1.20;;;;;;;21.91;58.15;101497.34;5008711;28;20036;-62
2021/07/10 05:48:45;;;;;;;1.13;1.00;;;;;;;21.90;58.58;101491.19;5000178;28;20034;-62
2021/07/10 05:51:11;;;;;;;2.25;1.20;;;;;;;21.91;58.42;101489.31;5010687;28;20042;-63
2021/07/10 05:53:36;;;;;;;1.92;1.10;;;;;;;21.90;58.60;101485.84;5010528;28;20041;-62
2021/07/10 05:56:02;;;;;;;2.08;1.00;;;;;;;21.90;58.43;101483.16;5011153;28;20030;-62
2021/07/10 05:58:28;;;;;;;1.60;1.20;;;;;;;21.90;58.40;101482.34;5010304;28;20026;-62
2021/07/10 06:00:53;;;;;;;1.90;1.17;;;;;;;21.89;58.56;101478.84;5010681;28;20044;-63
2021/07/10 06:03:18;;;;;;;2.10;1.20;;;;;;;21.91;58.58;101486.66;5009664;28;20026;-62
2021/07/10 06:05:44;;;;;;;1.10;1.00;;;;;;;21.90;58.23;101477.81;5010715;28;20509;-62
2021/07/10 06:08:09;;;;;;;3.03;1.25;;;;;;;21.89;58.30;101478.03;5010158;28;20050;-62
2021/07/10 06:10:35;;;;;;;3.35;1.30;;;;;;;21.89;58.21;101468.16;5006746;28;20046;-62
2021/07/10 06:13:00;;;;;;;2.25;1.30;;;;;;;21.89;58.35;101476.16;4999507;28;20042;-62
2021/07/10 06:15:26;;;;;;;2.00;1.08;;;;;;;21.89;58.08;101468.16;4992623;28;20045;-62
2021/07/10 06:17:51;;;;;;;1.92;1.10;;;;;;;21.89;58.05;101470.84;5009919;28;20034;-63
2021/07/10 06:20:18;;;;;;;2.53;1.50;;;;;;;21.90;58.06;101468.97;5009914;28;20042;-62
2021/07/10 06:22:47;;;;;;;1.70;1.20;;;;;;;21.90;58.35;101461.78;4996412;28;20029;-62
2021/07/10 06:25:14;;;;;;;2.58;1.27;;;;;;;21.90;58.22;101471.66;5010050;28;20076;-62
2021/07/10 06:27:39;;;;;;;2.20;1.35;;;;;;;21.89;58.29;101467.34;5010094;28;20092;-62
2021/07/10 06:30:11;;;;;;;2.08;1.20;;;;;;;21.89;58.24;101468.16;5009955;28;20050;-62
2021/07/10 06:32:38;;;;;;;1.85;1.10;;;;;;;21.89;57.82;101470.84;5011001;28;20073;-62
2021/07/10 06:35:04;;;;;;;2.00;1.48;;;;;;;21.89;58.29;101462.00;5020992;28;20046;-62
2021/07/10 06:37:30;;;;;;;3.75;1.45;;;;;;;21.89;57.84;101465.50;5024217;28;20038;-62
2021/07/10 06:39:55;;;;;;;1.50;1.10;;;;;;;21.89;58.24;101465.50;5013038;28;20133;-62
2021/07/10 06:42:22;;;;;;;2.00;1.25;;;;;;;21.89;57.85;101464.66;5017654;28;20762;-62
2021/07/10 06:44:47;;;;;;;1.75;1.20;;;;;;;21.89;58.10;101465.50;4993066;28;20084;-62
2021/07/10 06:47:13;;;;;;;1.88;1.20;;;;;;;21.88;58.18;101474.53;5009081;28;20061;-62
2021/07/10 06:49:38;;;;;;;2.30;1.00;;;;;;;21.89;58.02;101467.34;5005437;28;20043;-62
2021/07/10 06:52:05;;;;;;;1.90;1.10;;;;;;;21.88;57.93;101458.50;5003435;28;20076;-64
2021/07/10 06:54:30;;;;;;;3.08;1.40;;;;;;;21.88;58.10;101457.66;4993093;28;20042;-65
2021/07/10 06:56:56;;;;;;;4.88;1.60;;;;;;;21.88;58.19;101460.34;4991926;28;20042;-64
2021/07/10 06:59:21;;;;;;;4.63;1.38;;;;;;;21.88;58.16;101455.00;4992230;28;20049;-67
2021/07/10 07:01:50;;;;;;;3.00;1.40;;;;;;;21.86;58.02;101449.84;4993028;28;20490;-71
2021/07/10 07:04:16;;;;;;;2.80;1.65;;;;;;;21.87;58.18;101453.34;4989791;28;20088;-69
2021/07/10 07:06:42;;;;;;;4.63;1.30;;;;;;;21.85;58.14;101458.06;4995884;28;20057;-68
2021/07/10 07:09:07;;;;;;;2.80;1.65;;;;;;;21.84;58.10;101454.56;4992951;28;20069;-68
2021/07/10 07:11:33;;;;;;;4.47;1.13;;;;;;;21.82;58.15;101453.94;5022964;28;20064;-67
2021/07/10 07:13:58;;;;;;;2.67;1.17;;;;;;;21.81;57.84;101462.97;4997559;28;20026;-68
2021/07/10 07:16:23;;;;;;;4.95;1.58;;;;;;;21.81;58.19;101460.31;4996495;28;20018;-69
2021/07/10 07:18:49;;;;;;;2.83;1.48;;;;;;;21.80;57.85;101472.03;5019762;28;20073;-66
2021/07/10 07:21:14;;;;;;;2.40;1.42;;;;;;;21.79;58.18;101473.88;4991867;28;20026;-65
2021/07/10 07:23:40;;;;;;;3.42;1.40;;;;;;;21.79;57.85;101473.03;5032582;28;20038;-68
2021/07/10 07:26:05;;;;;;;3.00;1.40;;;;;;;21.77;58.23;101467.03;5023292;28;20058;-69
2021/07/10 07:28:31;;;;;;;3.38;1.50;;;;;;;21.76;58.12;101468.88;5021400;28;20108;-68
2021/07/10 07:30:56;;;;;;;5.03;1.40;;;;;;;21.76;58.11;101468.06;5014971;28;20048;-68
2021/07/10 07:33:22;;;;;;;3.95;1.48;;;;;;;21.75;57.92;101466.41;5006485;28;20065;-68
2021/07/10 07:35:47;;;;;;;2.20;1.25;;;;;;;21.75;58.34;101467.25;5024313;28;20103;-68
2021/07/10 07:38:13;;;;;;;4.07;1.50;;;;;;;21.74;58.30;101468.25;5008228;28;20040;-67
2021/07/10 07:40:39;;;;;;;3.53;1.60;;;;;;;21.74;58.13;101470.94;5009876;28;20771;-67
2021/07/10 07:43:05;;;;;;;3.60;1.35;;;;;;;21.74;57.97;101462.09;5027757;28;20125;-67
2021/07/10 07:45:30;;;;;;;3.75;1.60;;;;;;;21.73;58.11;101466.63;4976149;28;20047;-67
2021/07/10 07:47:56;;;;;;;2.58;1.33;;;;;;;21.73;58.07;101461.28;5008990;28;20422;-67
2021/07/10 07:50:22;;;;;;;3.10;1.38;;;;;;;21.73;58.26;101460.44;5009046;28;20102;-67
2021/07/10 07:52:48;;;;;;;3.22;1.27;;;;;;;21.73;58.27;101466.63;5009218;28;20473;-67
2021/07/10 07:55:14;;;;;;;3.70;1.40;;;;;;;21.75;58.42;101464.56;5015703;28;20053;-68
2021/07/10 07:57:41;;;;;;;2.97;1.48;;;;;;;21.76;58.41;101462.72;5023420;28;20560;-69
2021/07/10 08:00:10;;;;;;;1.85;1.40;;;;;;;21.75;58.34;101467.25;5007730;28;20044;-68
2021/07/10 08:02:35;;;;;;;2.75;1.60;;;;;;;21.75;58.21;101474.44;4992983;28;20549;-67
2021/07/10 08:05:01;;;;;;;2.08;1.50;;;;;;;21.73;58.00;101471.13;4991537;28;20046;-67
2021/07/10 08:07:26;;;;;;;3.25;1.45;;;;;;;21.73;57.85;101474.63;5009623;28;20038;-67
2021/07/10 08:09:52;;;;;;;3.08;1.40;;;;;;;21.74;57.67;101478.13;5010495;28;20088;-68
2021/07/10 08:12:18;;;;;;;2.78;1.20;;;;;;;21.73;57.73;101474.63;5010064;28;20079;-68
2021/07/10 08:14:43;;;;;;;3.38;1.50;;;;;;;21.74;58.07;101480.78;5011999;28;20092;-69
2021/07/10 08:17:09;;;;;;;2.13;1.30;;;;;;;21.73;57.56;101479.16;5011530;28;20433;-68
2021/07/10 08:19:34;;;;;;;4.75;1.60;;;;;;;21.71;57.89;101475.84;5017197;28;20061;-68
2021/07/10 08:22:00;;;;;;;3.35;1.55;;;;;;;21.73;57.81;101473.81;5017791;28;20137;-67
2021/07/10 08:24:26;;;;;;;3.38;1.90;;;;;;;21.70;57.60;101479.53;5023016;28;20021;-67
2021/07/10 08:26:51;;;;;;;1.88;1.20;;;;;;;21.71;57.43;101470.50;5018629;28;20576;-68
2021/07/10 08:29:17;;;;;;;3.25;1.70;;;;;;;21.70;57.56;101466.19;5021059;28;20060;-69
2021/07/10 08:31:42;;;;;;;3.17;1.52;;;;;;;21.69;57.31;101467.22;5002427;28;20052;-67
2021/07/10 08:34:09;;;;;;;4.03;1.83;;;;;;;21.69;57.22;101459.19;5025574;28;20084;-70
2021/07/10 08:36:35;;;;;;;5.85;1.95;;;;;;;21.69;57.39;101461.88;5024128;28;20034;-65
2021/07/10 08:39:03;;;;;;;3.22;1.50;;;;;;;21.70;57.03;101468.84;5013362;28;20049;-68
2021/07/10 08:41:28;;;;;;;7.60;1.48;;;;;;;21.70;57.46;101469.69;5012719;28;20030;-70
2021/07/10 08:43:54;;;;;;;6.28;2.00;;;;;;;21.71;57.30;101462.50;5012308;28;20587;-65
2021/07/10 08:46:20;;;;;;;8.13;1.92;;;;;;;21.70;57.24;101463.50;5006226;28;20034;-67
2021/07/10 08:48:46;;;;;;;5.97;2.03;;;;;;;21.72;57.20;101466.81;5008763;28;20048;-65
2021/07/10 08:51:13;;;;;;;2.30;1.58;;;;;;;21.71;56.97;101459.81;5008513;28;20311;-65
2021/07/10 08:53:40;;;;;;;4.78;1.55;;;;;;;21.73;57.10;101460.44;5008953;28;20034;-65
2021/07/10 08:56:07;;;;;;;2.35;1.60;;;;;;;21.71;57.32;101460.66;4990306;28;20038;-65
2021/07/10 08:58:33;;;;;;;3.17;1.60;;;;;;;21.72;56.76;101461.47;5007992;28;20033;-65
2021/07/10 09:00:59;;;;;;;4.25;1.83;;;;;;;21.73;57.03;101465.78;5008183;28;20083;-65
2021/07/10 09:03:25;;;;;;;5.60;1.73;;;;;;;21.74;57.04;101456.75;5005429;28;20063;-65
2021/07/10 09:05:53;;;;;;;3.70;1.40;;;;;;;21.73;57.03;101460.44;5008516;28;20038;-65
2021/07/10 09:08:27;;;;;;;2.92;1.70;;;;;;;21.72;57.03;101456.97;5008694;28;20034;-65
2021/07/10 09:10:59;;;;;;;4.95;1.80;;;;;;;21.73;56.89;101471.97;5006358;28;20486;-65
2021/07/10 09:13:33;;;;;;;6.82;1.80;;;;;;;21.73;56.82;101465.78;5008981;28;20033;-66
2021/07/10 09:16:09;;;;;;;2.53;1.40;;;;;;;21.71;57.01;101459.81;5012257;28;20100;-67
2021/07/10 09:18:46;;;;;;;7.90;1.70;;;;;;;21.69;56.94;101454.69;5013377;28;20042;-69
2021/07/10 09:21:14;;;;;;;4.47;1.80;;;;;;;21.73;56.90;101452.44;5005703;28;20100;-66
2021/07/10 09:23:44;;;;;;;5.57;1.60;;;;;;;21.74;56.59;101446.06;5005850;28;20037;-67
2021/07/10 09:26:17;;;;;;;2.83;1.52;;;;;;;21.73;56.95;101458.59;5012911;28;20076;-67
2021/07/10 09:28:44;;;;;;;6.88;2.78;;;;;;;21.75;56.70;101458.41;5008861;28;20046;-65
2021/07/10 09:31:22;;;;;;;3.20;2.10;;;;;;;21.75;57.18;101461.91;5008521;28;20602;-67
2021/07/10 09:33:48;;;;;;;3.42;1.92;;;;;;;21.75;56.89;101458.41;5004532;28;20038;-65
2021/07/10 09:36:13;;;;;;;3.85;1.83;;;;;;;21.75;56.51;101456.56;5010221;28;20041;-65
2021/07/10 09:38:42;;;;;;;3.65;1.85;;;;;;;21.75;56.45;101455.75;5013647;28;20034;-64
2021/07/10 09:41:13;;;;;;;8.93;1.92;;;;;;;21.75;56.42;101456.56;5008159;28;20042;-65
2021/07/10 09:43:40;;;;;;;3.03;2.03;;;;;;;21.75;56.64;101445.88;5006289;28;20083;-65
2021/07/10 09:46:08;;;;;;;4.45;1.98;;;;;;;21.76;56.51;101457.38;5006237;28;20442;-65
2021/07/10 09:48:36;;;;;;;3.35;2.00;;;;;;;21.76;56.65;101449.38;5010849;28;20041;-66
2021/07/10 09:51:24;;;;;;;4.35;1.92;;;;;;;21.74;56.66;101462.09;5007077;28;20056;-65
2021/07/10 09:54:05;;;;;;;4.25;1.92;;;;;;;21.75;56.59;101461.91;5006297;28;20033;-66
2021/07/10 09:56:35;;;;;;;5.10;2.13;;;;;;;21.77;56.34;101451.03;5004171;28;20175;-65
2021/07/10 09:59:16;;;;;;;3.67;2.03;;;;;;;21.73;56.44;101455.94;5007010;28;20609;-68
2021/07/10 10:01:42;;;;;;;5.68;2.20;;;;;;;21.78;56.70;101460.72;5015539;28;20384;-65
2021/07/10 10:04:27;;;;;;;5.90;2.42;;;;;;;21.75;56.51;101466.41;5006469;28;20030;-66
2021/07/10 10:06:58;;;;;;;3.60;2.17;;;;;;;21.78;56.45;101463.38;5006803;28;20108;-65
2021/07/10 10:09:28;;;;;;;5.35;2.00;;;;;;;21.78;56.50;101466.06;5007589;28;20525;-66
2021/07/10 10:12:03;;;;;;;4.30;2.10;;;;;;;21.75;56.58;101461.06;4993738;28;20390;-66
2021/07/10 10:14:30;;;;;;;6.80;2.35;;;;;;;21.77;56.45;101461.69;5009804;28;20026;-66
2021/07/10 10:17:00;;;;;;;6.95;2.80;;;;;;;21.77;56.39;101470.53;5009409;28;20034;-66
2021/07/10 10:19:29;;;;;;;5.05;2.30;;;;;;;21.77;56.38;101465.19;4989467;28;20099;-65
2021/07/10 10:21:57;;;;;;;6.15;2.80;;;;;;;21.78;56.56;101461.53;5009419;28;20091;-64
2021/07/10 10:24:24;;;;;;;6.20;2.58;;;;;;;21.79;56.48;101465.84;5005808;28;20038;-66
2021/07/10 10:26:51;;;;;;;7.88;2.72;;;;;;;21.79;56.59;101459.69;5008657;28;20057;-65
2021/07/10 10:29:19;;;;;;;8.48;2.85;;;;;;;21.80;56.63;101464.00;5011625;28;20112;-65
2021/07/10 10:31:46;;;;;;;5.72;2.70;;;;;;;21.81;56.57;101465.66;5013687;28;20037;-65
2021/07/10 10:34:12;;;;;;;6.70;3.17;;;;;;;21.81;56.60;101468.31;5024190;28;20155;-65
2021/07/10 10:36:43;;;;;;;6.22;2.53;;;;;;;21.82;56.56;101467.31;5024149;28;20389;-65
2021/07/10 10:39:22;;;;;;;8.10;2.75;;;;;;;21.78;56.55;101463.38;5029104;28;20033;-65
2021/07/10 10:41:53;;;;;;;3.47;2.55;;;;;;;21.80;56.28;101475.50;5013089;28;20033;-65
2021/07/10 10:44:20;;;;;;;5.75;2.65;;;;;;;21.81;56.15;101471.00;5025723;28;20653;-65
2021/07/10 10:46:56;;;;;;;4.88;2.22;;;;;;;21.77;56.06;101462.53;5015877;28;20034;-65
2021/07/10 10:49:45;;;;;;;5.03;2.40;;;;;;;21.76;56.19;101458.22;5013295;28;20069;-66
2021/07/10 10:52:20;;;;;;;3.47;1.95;;;;;;;21.78;55.72;101458.88;5009354;28;20129;-65
2021/07/10 10:54:49;;;;;;;5.40;2.85;;;;;;;21.79;56.06;101459.69;5007909;28;20049;-65
2021/07/10 10:57:16;;;;;;;4.03;2.33;;;;;;;21.79;55.91;101449.84;5000506;28;20508;-65
2021/07/10 10:59:43;;;;;;;3.38;2.20;;;;;;;21.79;55.37;101436.47;5004831;28;20042;-65
2021/07/10 11:02:24;;;;;;;4.55;2.13;;;;;;;21.74;55.30;101446.06;5009659;28;20129;-65
2021/07/10 11:05:00;;;;;;;4.05;1.98;;;;;;;21.76;55.55;101436.03;5006601;28;20038;-65
2021/07/10 11:07:36;;;;;;;4.43;2.15;;;;;;;21.75;55.16;101437.03;5000567;28;20039;-66
2021/07/10 11:10:06;;;;;;;3.45;1.90;;;;;;;21.77;55.45;101437.66;5006094;28;20040;-65
2021/07/10 11:12:47;;;;;;;3.83;1.90;;;;;;;21.75;55.42;101434.38;4995240;28;20746;-65
2021/07/10 11:15:25;;;;;;;3.95;1.80;;;;;;;21.74;55.44;101428.22;5002069;28;20108;-65
2021/07/10 11:17:54;;;;;;;3.03;2.05;;;;;;;21.76;55.24;101422.66;4995339;28;20026;-65
2021/07/10 11:20:41;;;;;;;3.65;1.70;;;;;;;21.72;54.88;101414.22;4996225;28;20487;-65
2021/07/10 11:23:26;;;;;;;3.97;1.80;;;;;;;21.76;54.97;101425.34;5008776;28;20405;-66